Time;durP1;ratioP1;P1;durP2;ratioP2;P2;SDS_P1;SDS_P2;PMS_P1;PMS_P2;Temp;Humidity;BMP_temperature;BMP_pressure;BME280_temperature;BME280_humidity;BME280_pressure;Samples;Min_cycle;Max_cycle;Signal;HPM_P1;HPM_P2
2023/04/06 00:01:55;;;;;;;15.88;8.90;;;5.00;99.90;;;;;;5090680;28;20185;-74
2023/04/06 00:04:21;;;;;;;13.48;8.40;;;5.00;99.90;;;;;;5091149;28;20170;-75
2023/04/06 00:06:47;;;;;;;16.58;9.02;;;5.00;99.90;;;;;;5090832;28;20209;-75
2023/04/06 00:09:13;;;;;;;17.05;9.02;;;5.00;99.90;;;;;;5092694;28;20622;-75
2023/04/06 00:11:39;;;;;;;12.45;8.93;;;4.90;99.90;;;;;;5091815;28;20189;-74
2023/04/06 00:14:04;;;;;;;17.42;8.55;;;5.00;99.90;;;;;;5092128;28;20178;-75
2023/04/06 00:16:30;;;;;;;15.57;10.05;;;4.90;99.90;;;;;;5072892;28;20623;-74
2023/04/06 00:18:56;;;;;;;17.88;9.77;;;4.90;99.90;;;;;;5093793;28;20181;-74
2023/04/06 00:21:22;;;;;;;16.58;10.38;;;4.90;99.90;;;;;;5087077;28;20186;-74
2023/04/06 00:23:47;;;;;;;15.70;10.00;;;4.90;99.90;;;;;;5091852;28;20229;-74
2023/04/06 00:26:13;;;;;;;21.30;9.70;;;4.90;99.90;;;;;;5089981;28;20182;-75
2023/04/06 00:28:45;;;;;;;14.63;9.68;;;4.90;99.90;;;;;;5086948;28;20606;-74
2023/04/06 00:31:11;;;;;;;18.50;10.20;;;4.80;99.90;;;;;;5090687;28;20185;-75
2023/04/06 00:33:36;;;;;;;14.23;9.60;;;4.80;99.90;;;;;;5087742;28;20373;-75
2023/04/06 00:36:02;;;;;;;15.95;10.05;;;4.80;99.90;;;;;;5070967;28;20700;-75
2023/04/06 00:38:28;;;;;;;18.63;10.43;;;4.80;99.90;;;;;;5074772;28;20212;-75
2023/04/06 00:40:54;;;;;;;15.90;9.57;;;4.70;99.90;;;;;;5092202;28;20192;-75
2023/04/06 00:43:20;;;;;;;14.75;9.35;;;4.70;99.90;;;;;;5089324;28;20625;-76
2023/04/06 00:45:45;;;;;;;19.25;10.18;;;4.70;99.90;;;;;;5071610;28;20182;-75
2023/04/06 00:48:11;;;;;;;18.05;10.48;;;4.70;99.90;;;;;;5078376;28;20212;-74
2023/04/06 00:50:37;;;;;;;16.95;10.18;;;4.60;99.90;;;;;;5089572;28;20332;-75
2023/04/06 00:53:03;;;;;;;18.63;9.95;;;4.60;99.90;;;;;;5091360;28;20186;-74
2023/04/06 00:55:29;;;;;;;17.27;9.93;;;4.60;99.90;;;;;;5091667;28;20181;-75
2023/04/06 00:57:59;;;;;;;20.83;9.88;;;4.60;99.90;;;;;;5076658;28;20204;-74
2023/04/06 01:00:26;;;;;;;17.98;10.48;;;4.60;99.90;;;;;;5082070;28;20504;-74
2023/04/06 01:02:57;;;;;;;17.30;11.02;;;4.60;99.90;;;;;;5090894;28;20182;-74
2023/04/06 01:05:30;;;;;;;17.08;10.32;;;4.60;99.90;;;;;;5077483;28;20174;-74
2023/04/06 01:07:58;;;;;;;17.25;10.98;;;4.50;99.90;;;;;;5065018;28;20743;-76
2023/04/06 01:10:28;;;;;;;21.67;10.80;;;4.60;99.90;;;;;;5091573;28;20207;-74
2023/04/06 01:13:03;;;;;;;21.95;10.68;;;4.50;99.90;;;;;;5088348;28;20197;-74
2023/04/06 01:15:49;;;;;;;17.15;10.40;;;4.50;99.90;;;;;;5090131;28;20189;-75
2023/04/06 01:18:29;;;;;;;17.05;10.30;;;4.50;99.90;;;;;;5090169;28;20189;-75
2023/04/06 01:21:30;;;;;;;24.63;10.05;;;4.50;99.90;;;;;;5072665;28;20186;-74
2023/04/06 01:24:22;;;;;;;17.67;10.05;;;4.50;99.90;;;;;;5041701;28;20195;-74
2023/04/06 01:27:04;;;;;;;15.98;9.80;;;4.50;99.90;;;;;;5073276;28;20273;-74
2023/04/06 01:29:48;;;;;;;15.70;10.07;;;4.40;99.90;;;;;;5093387;28;20220;-74
2023/04/06 01:32:21;;;;;;;18.02;10.25;;;4.40;99.90;;;;;;5085011;28;20182;-74
2023/04/06 01:34:50;;;;;;;17.13;10.18;;;4.40;99.90;;;;;;5074885;28;20186;-75
2023/04/06 01:37:16;;;;;;;18.30;11.18;;;4.40;99.90;;;;;;5078261;28;20185;-74
2023/04/06 01:39:43;;;;;;;18.48;10.52;;;4.40;99.90;;;;;;5074008;28;20182;-74
2023/04/06 01:42:12;;;;;;;15.55;10.45;;;4.40;99.90;;;;;;5075097;28;20273;-75
2023/04/06 01:44:39;;;;;;;18.30;10.30;;;4.30;99.90;;;;;;5094558;28;20633;-74
2023/04/06 01:47:12;;;;;;;16.52;10.88;;;4.30;99.90;;;;;;5086265;28;20170;-74
2023/04/06 01:49:39;;;;;;;18.17;11.00;;;4.30;99.90;;;;;;5060804;28;20268;-74
2023/04/06 01:52:05;;;;;;;16.13;9.82;;;4.30;99.90;;;;;;5087026;28;20187;-74
2023/04/06 01:54:32;;;;;;;20.35;10.45;;;4.30;99.90;;;;;;5081771;28;20178;-74
2023/04/06 01:57:30;;;;;;;16.90;11.02;;;4.20;99.90;;;;;;5063174;28;20197;-75
2023/04/06 02:00:05;;;;;;;17.33;10.75;;;4.20;99.90;;;;;;5094668;28;20181;-74
2023/04/06 02:02:43;;;;;;;17.10;10.75;;;4.20;99.90;;;;;;5092088;28;20189;-74
2023/04/06 02:05:16;;;;;;;16.35;11.02;;;4.20;99.90;;;;;;5093718;28;20181;-74
2023/04/06 02:07:43;;;;;;;16.73;10.65;;;4.10;99.90;;;;;;5092706;28;20621;-74
2023/04/06 02:10:13;;;;;;;16.75;10.70;;;4.10;99.90;;;;;;5077299;28;20190;-74
2023/04/06 02:12:39;;;;;;;15.45;10.00;;;4.10;99.90;;;;;;5093126;28;20227;-74
2023/04/06 02:15:09;;;;;;;15.50;10.25;;;4.10;99.90;;;;;;5092123;28;20666;-74
2023/04/06 02:17:35;;;;;;;19.40;10.50;;;4.10;99.90;;;;;;5084645;28;20182;-76
2023/04/06 02:20:00;;;;;;;14.70;10.00;;;4.00;99.90;;;;;;5094585;28;20661;-74
2023/04/06 02:22:26;;;;;;;15.65;9.98;;;4.10;99.90;;;;;;5093359;28;20178;-75
2023/04/06 02:24:52;;;;;;;22.00;11.13;;;4.00;99.90;;;;;;5090557;28;20195;-74
2023/04/06 02:27:18;;;;;;;16.73;10.88;;;4.00;99.90;;;;;;5079903;28;20178;-74
2023/04/06 02:29:46;;;;;;;16.60;10.18;;;4.00;99.90;;;;;;5083778;28;20205;-73
2023/04/06 02:32:14;;;;;;;15.27;9.77;;;4.00;99.90;;;;;;5062703;28;20554;-74
2023/04/06 02:34:40;;;;;;;18.40;10.68;;;3.90;99.90;;;;;;5089257;28;20170;-73
2023/04/06 02:37:06;;;;;;;17.23;10.93;;;3.90;99.90;;;;;;5091272;28;20265;-73
2023/04/06 02:39:31;;;;;;;16.15;10.77;;;3.90;99.90;;;;;;5093800;28;20698;-73
2023/04/06 02:41:58;;;;;;;20.38;11.35;;;3.90;99.90;;;;;;5081929;28;20271;-75
2023/04/06 02:44:25;;;;;;;18.33;10.52;;;3.90;99.90;;;;;;5079992;28;20211;-74
2023/04/06 02:46:51;;;;;;;18.02;10.93;;;3.90;99.90;;;;;;5093035;28;20173;-73
2023/04/06 02:49:17;;;;;;;16.60;11.20;;;3.80;99.90;;;;;;5094484;28;20676;-74
2023/04/06 02:51:44;;;;;;;14.75;9.93;;;3.80;99.90;;;;;;5092582;28;20174;-73
2023/04/06 02:54:20;;;;;;;16.85;10.68;;;3.80;99.90;;;;;;5091695;28;20174;-74
2023/04/06 02:56:46;;;;;;;15.25;10.10;;;3.80;99.90;;;;;;5092522;28;20269;-74
2023/04/06 02:59:12;;;;;;;18.98;10.88;;;3.80;99.90;;;;;;5093681;28;20242;-73
2023/04/06 03:01:42;;;;;;;17.15;10.18;;;3.80;99.90;;;;;;5092215;28;20174;-75
2023/04/06 03:04:07;;;;;;;16.02;9.90;;;3.70;99.90;;;;;;5093443;28;20182;-75
2023/04/06 03:06:33;;;;;;;17.58;9.90;;;3.70;99.90;;;;;;5090800;28;20179;-73
2023/04/06 03:09:10;;;;;;;20.02;10.88;;;3.70;99.90;;;;;;5093293;28;20211;-74
2023/04/06 03:11:38;;;;;;;19.65;10.88;;;3.60;99.90;;;;;;5091517;28;20687;-73
2023/04/06 03:14:04;;;;;;;19.33;12.05;;;3.60;99.90;;;;;;5090746;28;20175;-73
2023/04/06 03:16:30;;;;;;;21.55;11.52;;;3.60;99.90;;;;;;5081846;28;20185;-73
2023/04/06 03:18:56;;;;;;;17.40;10.77;;;3.50;99.90;;;;;;5075164;28;20775;-74
2023/04/06 03:21:22;;;;;;;17.98;10.88;;;3.50;99.90;;;;;;5077877;28;20232;-74
2023/04/06 03:23:51;;;;;;;16.25;10.50;;;3.50;99.90;;;;;;5091677;28;20174;-74
2023/04/06 03:26:17;;;;;;;20.67;11.10;;;3.50;99.90;;;;;;5090855;28;20231;-74
2023/04/06 03:28:43;;;;;;;17.63;10.05;;;3.50;99.90;;;;;;5084466;28;20203;-74
2023/04/06 03:31:09;;;;;;;21.10;11.60;;;3.50;99.90;;;;;;5092341;28;20190;-76
2023/04/06 03:33:56;;;;;;;18.45;11.73;;;3.50;99.90;;;;;;5104849;28;20210;-74
2023/04/06 03:36:26;;;;;;;19.88;11.55;;;3.40;99.90;;;;;;5076149;28;20178;-74
2023/04/06 03:38:54;;;;;;;19.30;11.45;;;3.40;99.90;;;;;;5092539;28;20194;-74
2023/04/06 03:41:20;;;;;;;19.73;11.95;;;3.40;99.90;;;;;;5088508;28;20178;-74
2023/04/06 03:43:54;;;;;;;18.58;11.73;;;3.40;99.90;;;;;;5089853;28;20242;-74
2023/04/06 03:46:20;;;;;;;19.42;11.95;;;3.40;99.90;;;;;;5082261;28;20269;-74
2023/04/06 03:48:49;;;;;;;19.25;12.23;;;3.40;99.90;;;;;;5088495;28;20278;-74
2023/04/06 03:51:16;;;;;;;18.45;11.38;;;3.30;99.90;;;;;;5074317;28;20193;-78
2023/04/06 03:53:42;;;;;;;19.60;13.02;;;3.30;99.90;;;;;;5078251;28;20176;-75
2023/04/06 03:56:08;;;;;;;20.20;11.60;;;3.30;99.90;;;;;;5092976;28;20617;-79
2023/04/06 03:58:34;;;;;;;15.90;10.95;;;3.20;99.90;;;;;;5083844;28;20193;-74
2023/04/06 04:01:00;;;;;;;16.52;11.68;;;3.20;99.90;;;;;;5088203;28;20178;-74
2023/04/06 04:03:27;;;;;;;17.75;11.70;;;3.20;99.90;;;;;;5090970;28;20209;-75
2023/04/06 04:05:54;;;;;;;16.63;11.40;;;3.20;99.90;;;;;;5093262;28;20291;-74
2023/04/06 04:08:21;;;;;;;18.17;11.57;;;3.10;99.90;;;;;;5086070;28;20206;-73
2023/04/06 04:10:47;;;;;;;17.10;10.95;;;3.10;99.90;;;;;;5086773;28;20178;-74
2023/04/06 04:13:13;;;;;;;31.20;11.85;;;3.10;99.90;;;;;;5088189;28;20617;-73
2023/04/06 04:15:41;;;;;;;20.63;11.35;;;3.10;99.90;;;;;;5086519;28;20178;-73
2023/04/06 04:18:08;;;;;;;21.30;11.10;;;3.00;99.90;;;;;;5080921;28;20177;-79
2023/04/06 04:20:34;;;;;;;18.58;11.30;;;3.00;99.90;;;;;;5079002;28;20642;-74
2023/04/06 04:23:00;;;;;;;17.38;10.75;;;3.00;99.90;;;;;;5086928;28;20182;-75
2023/04/06 04:25:29;;;;;;;18.02;10.70;;;3.00;99.90;;;;;;5072606;28;20342;-74
2023/04/06 04:27:55;;;;;;;17.70;11.43;;;3.00;99.90;;;;;;5085644;28;20634;-75
2023/04/06 04:30:21;;;;;;;19.90;10.88;;;3.00;99.90;;;;;;5079646;28;20256;-73
2023/04/06 04:32:47;;;;;;;18.05;10.50;;;2.90;99.90;;;;;;5088523;28;20645;-74
2023/04/06 04:35:17;;;;;;;17.75;11.32;;;2.90;99.90;;;;;;5080297;28;20182;-74
2023/04/06 04:37:44;;;;;;;23.48;10.65;;;2.90;99.90;;;;;;5072138;28;20273;-75
2023/04/06 04:40:11;;;;;;;16.52;10.40;;;2.90;99.90;;;;;;5071558;28;20186;-74
2023/04/06 04:42:48;;;;;;;19.75;10.80;;;2.90;99.90;;;;;;5072574;28;20252;-75
2023/04/06 04:45:24;;;;;;;16.02;10.40;;;2.80;99.90;;;;;;5088373;28;20695;-75
2023/04/06 04:47:51;;;;;;;17.05;10.90;;;2.80;99.90;;;;;;5090344;28;20185;-75
2023/04/06 04:50:19;;;;;;;18.30;10.25;;;2.90;99.90;;;;;;5089133;28;20230;-75
2023/04/06 04:52:47;;;;;;;20.10;10.43;;;2.80;99.90;;;;;;5074538;28;20183;-75
2023/04/06 04:55:20;;;;;;;18.10;10.70;;;2.80;99.90;;;;;;5074759;28;20614;-75
2023/04/06 04:57:50;;;;;;;20.35;10.60;;;2.80;99.90;;;;;;5090561;28;20259;-75
2023/04/06 05:00:20;;;;;;;17.45;11.23;;;2.80;99.90;;;;;;5089783;28;20185;-76
2023/04/06 05:02:47;;;;;;;21.77;11.15;;;2.80;99.90;;;;;;5074032;28;20242;-76
2023/04/06 05:05:17;;;;;;;20.17;10.82;;;2.80;99.90;;;;;;5052735;28;20689;-74
2023/04/06 05:07:43;;;;;;;19.20;10.48;;;2.90;99.90;;;;;;5083528;28;20261;-82
2023/04/06 05:10:16;;;;;;;15.95;10.15;;;2.90;99.90;;;;;;5080979;28;20192;-74
2023/04/06 05:12:51;;;;;;;19.77;11.07;;;2.90;99.90;;;;;;5071532;28;20178;-75
2023/04/06 05:15:17;;;;;;;18.75;10.20;;;2.90;99.90;;;;;;5065765;28;20275;-74
2023/04/06 05:17:44;;;;;;;17.77;9.93;;;2.90;99.90;;;;;;5086309;28;20189;-75
2023/04/06 05:20:14;;;;;;;16.95;9.60;;;2.90;99.90;;;;;;5079556;28;20240;-74
2023/04/06 05:22:46;;;;;;;15.00;9.25;;;2.90;99.90;;;;;;5084110;28;20182;-76
2023/04/06 05:25:13;;;;;;;16.73;10.75;;;2.90;99.90;;;;;;5076084;28;20182;-74
2023/04/06 05:27:40;;;;;;;19.65;10.73;;;2.90;99.90;;;;;;5078349;28;20239;-74
2023/04/06 05:30:16;;;;;;;24.60;10.55;;;2.90;99.90;;;;;;5084702;28;20190;-74
2023/04/06 05:32:45;;;;;;;17.63;9.63;;;2.90;99.90;;;;;;5089081;28;20227;-73
2023/04/06 05:35:12;;;;;;;20.23;10.15;;;2.90;99.90;;;;;;5085805;28;20585;-73
2023/04/06 05:37:39;;;;;;;17.92;9.55;;;2.90;99.90;;;;;;5081007;28;20182;-75
2023/04/06 05:40:06;;;;;;;22.42;10.50;;;2.90;99.90;;;;;;5084562;28;20182;-73
2023/04/06 05:42:39;;;;;;;21.45;9.75;;;2.90;99.90;;;;;;5082595;28;20182;-71
2023/04/06 05:45:06;;;;;;;22.13;10.25;;;3.00;99.90;;;;;;5082240;28;20173;-73
2023/04/06 05:47:33;;;;;;;17.75;10.07;;;3.00;99.90;;;;;;5078819;28;20601;-73
2023/04/06 05:50:07;;;;;;;19.85;10.90;;;3.00;99.90;;;;;;5079540;28;20260;-72
2023/04/06 05:52:36;;;;;;;23.35;10.18;;;3.10;99.90;;;;;;5078905;28;20278;-73
2023/04/06 05:55:03;;;;;;;21.95;10.00;;;3.10;99.90;;;;;;5080132;28;20534;-72
2023/04/06 05:57:30;;;;;;;18.73;8.95;;;3.20;99.90;;;;;;5081659;28;20178;-75
2023/04/06 05:59:56;;;;;;;22.60;9.70;;;3.20;99.90;;;;;;5086201;28;20637;-74
2023/04/06 06:02:26;;;;;;;19.10;9.23;;;3.40;99.90;;;;;;5083746;28;20588;-73
2023/04/06 06:04:52;;;;;;;23.92;10.30;;;3.60;99.90;;;;;;5087503;28;20215;-73
2023/04/06 06:07:19;;;;;;;16.83;9.85;;;3.70;99.90;;;;;;5080796;28;20625;-74
2023/04/06 06:09:59;;;;;;;21.83;10.30;;;3.70;99.90;;;;;;5066412;28;20201;-74
2023/04/06 06:12:30;;;;;;;20.95;9.77;;;3.70;99.90;;;;;;5077262;28;20190;-73
2023/04/06 06:14:56;;;;;;;17.08;9.63;;;3.80;99.90;;;;;;5079298;28;20186;-75
2023/04/06 06:17:23;;;;;;;19.05;9.52;;;3.80;99.90;;;;;;5070803;28;20185;-75
2023/04/06 06:19:50;;;;;;;18.23;10.13;;;3.70;99.90;;;;;;5083423;28;20207;-73
2023/04/06 06:22:16;;;;;;;15.77;10.20;;;3.80;99.90;;;;;;5089051;28;20552;-75
2023/04/06 06:24:45;;;;;;;22.23;9.93;;;3.90;99.90;;;;;;5079065;28;20625;-74
2023/04/06 06:27:12;;;;;;;17.60;10.00;;;3.90;99.90;;;;;;5085936;28;20178;-76
2023/04/06 06:29:38;;;;;;;18.05;10.63;;;4.00;99.90;;;;;;5082552;28;20217;-74
2023/04/06 06:32:04;;;;;;;17.60;10.32;;;4.00;99.90;;;;;;5084402;28;20182;-75
2023/04/06 06:34:30;;;;;;;20.50;10.63;;;4.00;99.90;;;;;;5069079;28;20591;-74
2023/04/06 06:36:59;;;;;;;18.05;10.45;;;4.10;99.90;;;;;;5081683;28;20201;-75
2023/04/06 06:39:26;;;;;;;16.08;10.27;;;4.10;99.90;;;;;;5082486;28;20186;-75
2023/04/06 06:41:54;;;;;;;18.52;11.52;;;4.20;99.90;;;;;;5084189;28;20204;-74
2023/04/06 06:44:22;;;;;;;18.98;11.13;;;4.30;99.90;;;;;;5081413;28;20197;-74
2023/04/06 06:46:48;;;;;;;19.65;11.23;;;4.50;99.90;;;;;;5087274;28;20247;-76
2023/04/06 06:49:14;;;;;;;20.63;11.48;;;4.80;99.90;;;;;;5084378;28;20230;-74
2023/04/06 06:51:40;;;;;;;17.02;11.43;;;5.10;99.90;;;;;;5088398;28;20204;-74
2023/04/06 06:54:06;;;;;;;21.10;12.10;;;5.20;99.90;;;;;;5082100;28;20175;-73
2023/04/06 06:56:32;;;;;;;18.58;11.45;;;5.30;99.90;;;;;;5067764;28;20174;-73
2023/04/06 06:58:58;;;;;;;21.85;11.80;;;5.30;99.90;;;;;;5087972;28;20185;-75
2023/04/06 07:01:24;;;;;;;18.13;10.93;;;5.50;99.90;;;;;;5083629;28;20197;-75
2023/04/06 07:03:50;;;;;;;19.92;11.02;;;5.60;99.90;;;;;;5084462;28;20528;-73
2023/04/06 07:06:16;;;;;;;17.70;10.40;;;5.70;99.90;;;;;;5066253;28;20201;-73
2023/04/06 07:08:41;;;;;;;19.50;10.80;;;5.70;99.90;;;;;;5069777;28;20198;-76
2023/04/06 07:11:07;;;;;;;18.42;10.32;;;5.70;99.90;;;;;;5067754;28;20187;-79
2023/04/06 07:13:34;;;;;;;17.90;10.65;;;5.80;99.90;;;;;;5085511;28;20232;-74
2023/04/06 07:16:01;;;;;;;22.27;10.77;;;6.10;99.90;;;;;;5068115;28;20210;-76
2023/04/06 07:18:28;;;;;;;18.65;11.27;;;7.00;99.90;;;;;;5083804;28;20190;-74
2023/04/06 07:20:54;;;;;;;19.10;11.68;;;7.90;98.70;;;;;;5084601;28;20228;-75
2023/04/06 07:23:20;;;;;;;20.63;12.00;;;8.30;97.60;;;;;;5086670;28;20174;-74
2023/04/06 07:25:45;;;;;;;19.33;11.63;;;8.50;97.30;;;;;;5082143;28;20231;-75
2023/04/06 07:28:11;;;;;;;19.67;11.60;;;8.50;97.50;;;;;;5086586;28;20178;-75
2023/04/06 07:30:38;;;;;;;18.65;11.85;;;8.60;97.30;;;;;;5084391;28;20191;-75
2023/04/06 07:33:05;;;;;;;22.52;11.90;;;8.60;97.00;;;;;;5085150;28;20259;-76
2023/04/06 07:35:32;;;;;;;16.75;11.07;;;8.60;96.90;;;;;;5081029;28;20650;-76
2023/04/06 07:37:59;;;;;;;17.77;10.45;;;8.70;97.10;;;;;;5086011;28;20178;-80
2023/04/06 07:40:26;;;;;;;16.42;10.82;;;8.90;97.10;;;;;;5059402;28;20201;-76
2023/04/06 07:42:52;;;;;;;15.77;10.18;;;9.50;96.80;;;;;;5088183;28;20189;-77
2023/04/06 07:45:18;;;;;;;18.75;10.68;;;10.60;94.80;;;;;;5084609;28;20209;-75
2023/04/06 07:47:45;;;;;;;16.42;10.20;;;12.00;92.30;;;;;;5083043;28;20175;-74
2023/04/06 07:50:12;;;;;;;16.27;10.02;;;13.40;87.20;;;;;;5081771;28;20241;-75
2023/04/06 07:52:38;;;;;;;16.98;9.70;;;14.50;78.80;;;;;;5053800;28;20181;-75
2023/04/06 07:55:05;;;;;;;18.17;12.43;;;15.20;72.80;;;;;;5082301;28;20186;-75
2023/04/06 07:57:31;;;;;;;15.77;10.50;;;15.90;67.30;;;;;;5082579;28;20522;-74
2023/04/06 07:59:57;;;;;;;18.15;10.32;;;16.70;64.20;;;;;;5084524;28;20190;-75
2023/04/06 08:02:22;;;;;;;15.50;9.52;;;17.30;61.00;;;;;;5081110;28;20192;-75
2023/04/06 08:04:48;;;;;;;16.25;9.32;;;18.20;58.90;;;;;;5093400;28;20178;-76
2023/04/06 08:07:14;;;;;;;17.95;10.02;;;18.60;55.10;;;;;;5069270;28;20736;-75
2023/04/06 08:09:40;;;;;;;19.17;10.55;;;19.40;53.20;;;;;;5081626;28;20280;-76
2023/04/06 08:12:06;;;;;;;21.50;9.82;;;19.80;50.50;;;;;;5090373;28;20584;-75
2023/04/06 08:14:32;;;;;;;15.48;9.85;;;20.10;49.10;;;;;;5092384;28;20178;-75
2023/04/06 08:16:57;;;;;;;14.43;10.30;;;20.40;47.20;;;;;;5081631;28;20190;-75
2023/04/06 08:19:23;;;;;;;16.15;9.77;;;20.80;46.30;;;;;;5091112;28;20802;-76
2023/04/06 08:21:49;;;;;;;13.45;9.15;;;21.40;45.00;;;;;;5087379;28;20197;-76
2023/04/06 08:24:15;;;;;;;12.45;9.30;;;21.80;44.20;;;;;;5075508;28;20178;-76
2023/04/06 08:26:41;;;;;;;14.43;9.20;;;21.90;42.50;;;;;;5076439;28;20190;-76
2023/04/06 08:29:09;;;;;;;13.98;9.48;;;22.10;41.70;;;;;;5093417;28;20229;-76
2023/04/06 08:31:36;;;;;;;15.90;9.82;;;22.00;40.80;;;;;;5091350;28;20234;-76
2023/04/06 08:34:05;;;;;;;16.00;9.48;;;22.10;40.40;;;;;;5091151;28;20182;-75
2023/04/06 08:36:31;;;;;;;14.00;9.25;;;22.30;40.30;;;;;;5086922;28;20189;-78
2023/04/06 08:38:57;;;;;;;16.40;10.13;;;22.50;39.70;;;;;;5090490;28;20198;-74
2023/04/06 08:41:23;;;;;;;14.32;10.00;;;22.50;39.30;;;;;;5087494;28;20177;-76
2023/04/06 08:43:51;;;;;;;18.98;10.10;;;22.40;38.50;;;;;;5088024;28;20233;-75
2023/04/06 08:46:18;;;;;;;16.10;9.95;;;22.60;38.60;;;;;;5080453;28;20186;-76
2023/04/06 08:48:45;;;;;;;16.30;10.10;;;22.80;37.90;;;;;;5085873;28;20268;-77
2023/04/06 08:51:11;;;;;;;18.23;10.18;;;22.90;37.80;;;;;;5088516;28;20182;-78
2023/04/06 08:53:38;;;;;;;15.40;9.90;;;23.20;37.90;;;;;;5091517;28;20186;-76
2023/04/06 08:56:05;;;;;;;14.40;9.95;;;23.50;36.60;;;;;;5091738;28;20178;-75
2023/04/06 08:58:39;;;;;;;15.55;10.05;;;23.60;36.10;;;;;;5091437;28;20193;-85
2023/04/06 09:01:11;;;;;;;15.13;9.82;;;23.50;35.60;;;;;;5069242;28;20184;-77
2023/04/06 09:03:39;;;;;;;16.02;10.55;;;23.40;35.80;;;;;;5087531;28;20170;-77
2023/04/06 09:06:06;;;;;;;16.33;10.02;;;23.90;35.60;;;;;;5090581;28;20182;-80
2023/04/06 09:08:38;;;;;;;14.38;9.88;;;24.30;34.70;;;;;;5071308;28;20237;-78
2023/04/06 09:11:04;;;;;;;15.05;10.05;;;24.40;34.30;;;;;;5071216;28;20717;-75
2023/04/06 09:13:31;;;;;;;13.40;10.23;;;24.80;33.40;;;;;;5090452;28;20247;-75
2023/04/06 09:16:04;;;;;;;13.25;9.98;;;24.50;32.60;;;;;;5090461;28;20534;-78
2023/04/06 09:18:31;;;;;;;15.18;10.70;;;24.10;32.70;;;;;;5090142;28;20178;-77
2023/04/06 09:21:07;;;;;;;16.60;10.18;;;23.90;32.90;;;;;;5089771;28;20174;-76
2023/04/06 09:23:33;;;;;;;15.82;10.38;;;23.60;33.00;;;;;;5086582;28;20183;-77
2023/04/06 09:26:13;;;;;;;16.88;10.60;;;23.10;33.30;;;;;;5075150;28;20178;-76
2023/04/06 09:28:50;;;;;;;17.27;10.30;;;22.10;34.50;;;;;;5072109;28;20217;-75
2023/04/06 09:31:24;;;;;;;14.38;10.05;;;20.90;35.80;;;;;;5075949;28;20204;-77
2023/04/06 09:33:51;;;;;;;18.83;10.75;;;19.80;37.10;;;;;;5077013;28;20184;-74
2023/04/06 09:36:18;;;;;;;20.20;10.88;;;19.00;38.60;;;;;;5090796;28;20231;-76
2023/04/06 09:38:58;;;;;;;16.13;10.95;;;18.50;39.50;;;;;;5087079;28;20188;-76
2023/04/06 09:41:29;;;;;;;15.63;11.07;;;17.90;40.30;;;;;;5088757;28;20577;-75
2023/04/06 09:44:06;;;;;;;16.40;11.45;;;17.30;41.20;;;;;;5070832;28;20536;-76
2023/04/06 09:46:34;;;;;;;15.23;10.95;;;16.80;42.20;;;;;;5074598;28;20632;-75
2023/04/06 09:49:04;;;;;;;17.02;10.90;;;16.40;42.90;;;;;;5094207;28;20304;-76
2023/04/06 09:51:32;;;;;;;16.08;11.35;;;15.80;43.40;;;;;;5092616;28;20570;-75
2023/04/06 09:54:01;;;;;;;19.67;11.45;;;15.40;44.30;;;;;;5074723;28;20472;-76
2023/04/06 09:56:30;;;;;;;21.10;12.15;;;15.10;45.00;;;;;;5077377;28;20186;-75
2023/04/06 09:59:03;;;;;;;20.77;12.45;;;14.80;45.90;;;;;;5095482;28;20174;-75
2023/04/06 10:01:32;;;;;;;18.95;11.50;;;14.60;46.20;;;;;;5094438;28;20255;-76
2023/04/06 10:04:16;;;;;;;20.25;12.25;;;14.30;46.80;;;;;;5095151;28;20750;-75
2023/04/06 10:06:43;;;;;;;19.50;12.40;;;14.10;47.40;;;;;;5090907;28;20182;-75
2023/04/06 10:09:09;;;;;;;20.42;12.50;;;13.90;48.10;;;;;;5073823;28;20244;-75
2023/04/06 10:11:35;;;;;;;19.98;11.77;;;13.70;48.80;;;;;;5076298;28;20187;-75
2023/04/06 10:14:01;;;;;;;21.35;12.30;;;13.60;49.50;;;;;;5092703;28;20186;-78
2023/04/06 10:16:29;;;;;;;22.73;13.85;;;13.60;50.10;;;;;;5090699;28;21168;-75
2023/04/06 10:19:04;;;;;;;20.55;13.05;;;13.50;50.60;;;;;;5073812;28;20205;-75
2023/04/06 10:21:32;;;;;;;26.48;13.05;;;13.50;51.00;;;;;;5084287;28;20177;-74
2023/04/06 10:24:00;;;;;;;19.60;13.23;;;13.50;51.20;;;;;;5093715;28;20182;-75
2023/04/06 10:26:26;;;;;;;19.67;13.13;;;13.60;51.40;;;;;;5092915;28;20186;-76
2023/04/06 10:28:52;;;;;;;23.30;13.75;;;13.70;51.50;;;;;;5095482;28;20515;-74
2023/04/06 10:31:27;;;;;;;24.17;13.93;;;13.80;51.70;;;;;;5094468;28;20182;-78
2023/04/06 10:33:56;;;;;;;21.45;13.90;;;14.00;51.60;;;;;;5079522;28;20347;-75
2023/04/06 10:36:25;;;;;;;22.02;13.82;;;14.00;51.40;;;;;;5093023;28;20689;-75
2023/04/06 10:39:02;;;;;;;22.17;13.93;;;14.10;51.50;;;;;;5095407;28;20189;-76
2023/04/06 10:41:41;;;;;;;25.42;14.90;;;14.20;51.50;;;;;;5087053;28;20280;-75
2023/04/06 10:44:07;;;;;;;21.45;14.65;;;14.30;51.40;;;;;;5086790;28;20189;-75
2023/04/06 10:46:33;;;;;;;23.60;15.02;;;14.40;51.30;;;;;;5073901;28;20186;-75
2023/04/06 10:49:11;;;;;;;25.02;15.82;;;14.50;51.00;;;;;;5074590;28;20226;-75
2023/04/06 10:51:39;;;;;;;25.92;14.60;;;14.70;51.10;;;;;;5074716;28;20186;-77
2023/04/06 10:54:06;;;;;;;23.02;15.77;;;14.80;50.80;;;;;;5074914;28;20258;-75
2023/04/06 10:56:38;;;;;;;30.13;15.55;;;14.90;50.90;;;;;;5082026;28;20178;-77
2023/04/06 10:59:06;;;;;;;24.92;15.65;;;15.00;50.60;;;;;;5074579;28;20611;-77
2023/04/06 11:01:32;;;;;;;27.65;15.88;;;15.00;50.60;;;;;;5076871;28;20175;-76
2023/04/06 11:03:59;;;;;;;26.73;16.15;;;15.00;50.80;;;;;;5093262;28;20272;-76
2023/04/06 11:06:30;;;;;;;24.52;16.10;;;15.10;50.80;;;;;;5091412;28;20205;-77
2023/04/06 11:08:57;;;;;;;34.35;17.70;;;15.00;50.90;;;;;;5094888;28;20285;-76
2023/04/06 11:11:26;;;;;;;26.20;17.25;;;15.00;50.90;;;;;;5080443;28;20206;-77
2023/04/06 11:13:57;;;;;;;29.52;18.92;;;15.00;51.00;;;;;;5087266;28;20174;-76
2023/04/06 11:16:23;;;;;;;35.78;22.13;;;15.00;51.10;;;;;;5083586;28;20255;-76
2023/04/06 11:18:56;;;;;;;34.88;21.40;;;15.00;50.40;;;;;;5094467;28;20182;-76
2023/04/06 11:21:43;;;;;;;41.95;23.58;;;14.80;50.00;;;;;;5092556;28;20199;-76
2023/04/06 11:24:16;;;;;;;36.47;24.13;;;14.90;49.80;;;;;;5094589;28;20170;-76
2023/04/06 11:26:45;;;;;;;43.88;25.65;;;15.00;49.30;;;;;;5091198;28;20178;-76
2023/04/06 11:29:26;;;;;;;43.30;26.10;;;15.10;48.70;;;;;;5087447;28;20210;-76
2023/04/06 11:31:57;;;;;;;41.40;24.48;;;15.10;48.40;;;;;;5074362;28;20197;-76
2023/04/06 11:34:25;;;;;;;43.92;24.55;;;15.10;48.40;;;;;;5072732;28;20258;-76
2023/04/06 11:37:04;;;;;;;43.38;25.42;;;15.10;48.60;;;;;;5077324;28;20170;-77
2023/04/06 11:39:30;;;;;;;42.25;25.42;;;15.20;48.40;;;;;;5083694;28;20189;-76
2023/04/06 11:42:03;;;;;;;46.90;26.02;;;15.10;47.90;;;;;;5086637;28;20194;-77
2023/04/06 11:44:38;;;;;;;44.13;25.23;;;15.10;48.00;;;;;;5073615;28;20171;-79
2023/04/06 11:47:06;;;;;;;38.67;24.70;;;15.10;48.10;;;;;;5080236;28;20181;-77
2023/04/06 11:49:34;;;;;;;37.92;24.50;;;15.20;48.40;;;;;;5092554;28;20229;-77
2023/04/06 11:52:00;;;;;;;41.40;24.85;;;15.10;48.00;;;;;;5092547;28;20239;-77
2023/04/06 11:54:34;;;;;;;45.08;25.60;;;15.10;48.30;;;;;;5093576;28;20182;-77
2023/04/06 11:57:01;;;;;;;37.47;24.70;;;15.20;48.40;;;;;;5091564;28;20582;-77
2023/04/06 11:59:27;;;;;;;44.10;25.30;;;15.30;48.40;;;;;;5087307;28;20204;-75
2023/04/06 12:01:53;;;;;;;41.33;25.60;;;15.30;48.50;;;;;;5089093;28;20177;-75
2023/04/06 12:04:20;;;;;;;44.47;26.08;;;15.40;48.60;;;;;;5091210;28;20687;-76
2023/04/06 12:06:46;;;;;;;41.13;26.20;;;15.50;48.50;;;;;;5091524;28;20352;-75
2023/04/06 12:09:12;;;;;;;39.47;25.98;;;15.50;48.30;;;;;;5087434;28;20748;-76
2023/04/06 12:11:38;;;;;;;38.13;25.23;;;15.50;48.30;;;;;;5072169;28;20182;-75
2023/04/06 12:14:05;;;;;;;38.95;24.77;;;15.50;48.50;;;;;;5077431;28;20243;-76
2023/04/06 12:16:31;;;;;;;43.65;25.55;;;15.40;48.30;;;;;;5089370;28;20216;-74
2023/04/06 12:18:57;;;;;;;41.47;26.60;;;15.30;48.30;;;;;;5092346;28;20192;-75
2023/04/06 12:21:23;;;;;;;40.92;24.60;;;15.30;48.30;;;;;;5090757;28;20178;-75
2023/04/06 12:23:48;;;;;;;40.53;26.25;;;15.20;48.30;;;;;;5077786;28;20189;-76
2023/04/06 12:26:14;;;;;;;41.15;25.27;;;15.10;48.30;;;;;;5091062;28;20186;-76
2023/04/06 12:28:40;;;;;;;44.97;25.83;;;15.10;48.70;;;;;;5091826;28;20572;-76
2023/04/06 12:31:06;;;;;;;42.33;25.05;;;15.00;48.90;;;;;;5078766;28;20269;-79
2023/04/06 12:33:32;;;;;;;41.50;25.40;;;15.00;49.00;;;;;;5091864;28;20273;-75
2023/04/06 12:35:58;;;;;;;39.97;25.52;;;14.90;49.10;;;;;;5075393;28;20332;-75
2023/04/06 12:38:24;;;;;;;39.60;25.02;;;14.90;49.40;;;;;;5090262;28;20186;-76
2023/04/06 12:40:49;;;;;;;45.15;24.65;;;14.80;49.70;;;;;;5095100;28;20279;-75
2023/04/06 12:43:15;;;;;;;39.95;25.00;;;14.80;49.70;;;;;;5092199;28;20210;-75